createdAt,value
2018-08-23T00:00:44.444Z,94969.75
2018-08-23T00:03:48.850Z,94971.30
2018-08-23T00:07:00.433Z,94972.45
2018-08-23T00:10:04.845Z,94973.98
2018-08-23T00:13:09.260Z,94973.80
2018-08-23T00:16:13.967Z,94974.96
2018-08-23T00:19:18.477Z,94973.98
2018-08-23T00:22:27.116Z,94974.16
2018-08-23T00:25:32.689Z,94974.34
2018-08-23T00:28:37.217Z,94972.63
2018-08-23T00:31:41.989Z,94975.11
2018-08-23T00:34:46.437Z,94976.10
2018-08-23T00:37:50.795Z,94974.75
2018-08-23T00:40:55.288Z,94977.81
2018-08-23T00:43:59.666Z,94975.68
2018-08-23T00:47:04.338Z,94975.86
2018-08-23T00:50:08.993Z,94979.70
2018-08-23T00:53:13.377Z,94973.73
2018-08-23T00:56:23.665Z,94974.72
2018-08-23T00:59:28.140Z,94972.23
2018-08-23T01:02:32.815Z,94971.66
2018-08-23T01:05:38.581Z,94966.27
2018-08-23T01:08:43.052Z,94972.06
2018-08-23T01:11:47.771Z,94982.72
2018-08-23T01:14:53.244Z,94979.92
2018-08-23T01:18:13.168Z,94969.45
2018-08-23T01:21:23.758Z,94966.52
2018-08-23T01:24:31.648Z,94970.81
2018-08-23T01:27:38.187Z,94964.31
2018-08-23T01:30:42.957Z,94969.95
2018-08-23T01:33:47.595Z,94969.48
2018-08-23T01:36:52.005Z,94966.70
2018-08-23T01:39:56.463Z,94964.05
2018-08-23T01:43:00.998Z,94957.43
2018-08-23T01:46:05.350Z,94962.50
2018-08-23T01:49:09.820Z,94958.00
2018-08-23T01:52:14.321Z,94962.35
2018-08-23T01:55:19.781Z,94952.95
2018-08-23T01:58:24.178Z,94958.84
2018-08-23T02:01:36.853Z,94963.63
2018-08-23T02:04:41.187Z,94955.19
2018-08-23T02:07:45.549Z,94954.78
2018-08-23T02:10:49.893Z,94957.47
2018-08-23T02:13:54.229Z,94960.36
2018-08-23T02:16:58.631Z,94958.84
2018-08-23T02:20:03.069Z,94953.16
2018-08-23T02:23:07.447Z,94944.89
2018-08-23T02:26:12.007Z,94946.23
2018-08-23T02:29:20.801Z,94942.57
2018-08-23T02:32:25.153Z,94947.37
2018-08-23T02:35:29.563Z,94946.52
2018-08-23T02:38:34.651Z,94950.74
2018-08-23T02:41:41.378Z,94952.78
2018-08-23T02:44:46.918Z,94954.00
2018-08-23T02:47:51.202Z,94956.91
2018-08-23T02:50:55.582Z,94948.68
2018-08-23T02:53:59.950Z,94951.16
2018-08-23T02:57:08.881Z,94951.41
2018-08-23T03:00:13.338Z,94958.45
2018-08-23T03:03:17.927Z,94953.69
2018-08-23T03:06:30.646Z,94955.39
2018-08-23T03:09:36.228Z,94945.54
2018-08-23T03:12:40.992Z,94946.23
2018-08-23T03:15:46.818Z,94949.48
2018-08-23T03:18:51.324Z,94941.42
2018-08-23T03:22:01.029Z,94953.85
2018-08-23T03:25:07.122Z,94951.28
2018-08-23T03:28:12.150Z,94952.61
2018-08-23T03:31:17.120Z,94953.13
2018-08-23T03:34:21.454Z,94955.63
2018-08-23T03:37:26.351Z,94956.08
2018-08-23T03:40:30.769Z,94950.25
2018-08-23T03:43:35.135Z,94955.01
2018-08-23T03:46:53.557Z,94945.08
2018-08-23T03:49:57.956Z,94948.96
2018-08-23T03:53:02.367Z,94947.57
2018-08-23T03:56:09.682Z,94950.41
2018-08-23T03:59:14.066Z,94949.59
2018-08-23T04:02:20.278Z,94952.97
2018-08-23T04:05:24.657Z,94948.61
2018-08-23T04:08:29.166Z,94953.89
2018-08-23T04:11:33.544Z,94952.59
2018-08-23T04:14:38.398Z,94953.55
2018-08-23T04:17:42.770Z,94951.05
2018-08-23T04:20:55.599Z,94951.62
2018-08-23T04:24:03.704Z,94955.73
2018-08-23T04:27:08.841Z,94957.97
2018-08-23T04:30:13.211Z,94958.55
2018-08-23T04:33:17.576Z,94957.20
2018-08-23T04:36:30.319Z,94956.66
2018-08-23T04:39:34.886Z,94958.98
2018-08-23T04:42:39.282Z,94957.08
2018-08-23T04:45:43.626Z,94955.26
2018-08-23T04:48:50.992Z,94962.64
2018-08-23T04:51:55.403Z,94958.52
2018-08-23T04:54:59.939Z,94962.88
2018-08-23T04:58:04.978Z,94961.86
2018-08-23T05:01:09.358Z,94961.91
2018-08-23T05:04:13.841Z,94953.56
2018-08-23T05:07:18.230Z,94958.07
2018-08-23T05:10:22.869Z,94949.92
2018-08-23T05:13:27.332Z,94951.98
2018-08-23T05:16:31.702Z,94957.59
2018-08-23T05:19:36.034Z,94951.44
2018-08-23T05:22:46.947Z,94950.35
2018-08-23T05:25:56.021Z,94947.29
2018-08-23T05:29:04.366Z,94947.14
2018-08-23T05:32:08.715Z,94947.55
2018-08-23T05:35:13.081Z,94948.55
2018-08-23T05:38:18.469Z,94948.77
2018-08-23T05:41:22.983Z,94947.84
2018-08-23T05:44:27.490Z,94947.87
2018-08-23T05:47:32.664Z,94950.38
2018-08-23T05:50:39.085Z,94948.05
2018-08-23T05:53:50.756Z,94953.04
2018-08-23T05:56:55.221Z,94951.42
2018-08-23T05:59:59.666Z,94960.66
2018-08-23T06:03:04.817Z,94960.27
2018-08-23T06:06:10.011Z,94961.71
2018-08-23T06:09:16.563Z,94959.98
2018-08-23T06:12:21.335Z,94958.11
2018-08-23T06:15:25.789Z,94956.44
2018-08-23T06:18:32.597Z,94954.87
2018-08-23T06:21:36.979Z,94955.11
2018-08-23T06:24:41.495Z,94954.84
2018-08-23T06:27:45.942Z,94954.61
2018-08-23T06:30:55.287Z,94956.08
2018-08-23T06:34:00.418Z,94956.59
2018-08-23T06:37:04.877Z,94954.49
2018-08-23T06:40:09.368Z,94953.02
2018-08-23T06:43:13.941Z,94957.41
2018-08-23T06:46:20.315Z,94956.63
2018-08-23T06:49:24.777Z,94954.39
2018-08-23T06:53:01.475Z,94954.35
2018-08-23T06:56:05.890Z,94949.49
2018-08-23T06:59:11.574Z,94949.77
2018-08-23T07:02:16.452Z,94950.12
2018-08-23T07:05:21.074Z,94950.92
2018-08-23T07:08:25.449Z,94963.20
2018-08-23T07:11:30.127Z,94957.45
2018-08-23T07:14:35.918Z,94953.19
2018-08-23T07:17:40.579Z,94954.98
2018-08-23T07:20:44.854Z,94964.03
2018-08-23T07:23:49.251Z,94952.50
2018-08-23T07:26:53.679Z,94951.49
2018-08-23T07:29:59.102Z,94949.92
2018-08-23T07:33:03.646Z,94952.13
2018-08-23T07:36:30.659Z,94956.16
2018-08-23T07:39:35.334Z,94959.22
2018-08-23T07:42:40.929Z,94958.16
2018-08-23T07:45:45.347Z,94957.56
2018-08-23T07:48:49.724Z,94958.62
2018-08-23T07:51:54.302Z,94962.72
2018-08-23T07:55:00.154Z,94964.66
2018-08-23T07:58:04.670Z,94967.94
2018-08-23T08:01:10.676Z,94963.52
2018-08-23T08:04:15.708Z,94958.09
2018-08-23T08:07:25.910Z,94961.47
2018-08-23T08:10:37.016Z,94959.32
2018-08-23T08:13:41.513Z,94953.95
2018-08-23T08:16:46.253Z,94956.36
2018-08-23T08:19:56.579Z,94951.40
2018-08-23T08:23:01.730Z,94953.81
2018-08-23T08:26:06.364Z,94953.55
2018-08-23T08:29:11.155Z,94954.71
2018-08-23T08:32:17.539Z,94956.08
2018-08-23T08:35:22.107Z,94951.19
2018-08-23T08:38:26.541Z,94940.85
2018-08-23T08:41:38.116Z,94946.32
2018-08-23T08:44:42.545Z,94950.13
2018-08-23T08:47:47.634Z,94945.89
2018-08-23T08:51:14.342Z,94947.09
2018-08-23T08:54:18.992Z,94943.56
2018-08-23T08:57:29.622Z,94947.83
2018-08-23T09:00:53.580Z,94934.31
2018-08-23T09:03:58.116Z,94930.78
2018-08-23T09:07:02.538Z,94928.36
2018-08-23T09:10:07.248Z,94931.52
2018-08-23T09:13:11.705Z,94923.45
2018-08-23T09:16:16.629Z,94925.30
2018-08-23T09:19:21.220Z,94926.45
2018-08-23T09:22:25.714Z,94921.19
2018-08-23T09:25:35.308Z,94920.44
2018-08-23T09:28:39.726Z,94917.08
2018-08-23T09:31:44.205Z,94911.30
2018-08-23T09:34:49.023Z,94901.97
2018-08-23T09:37:56.775Z,94905.47
2018-08-23T09:41:01.303Z,94913.14
2018-08-23T09:44:06.069Z,94900.09
2018-08-23T09:47:10.502Z,94903.42
2018-08-23T09:50:15.068Z,94903.91
2018-08-23T09:53:25.179Z,94900.25
2018-08-23T09:56:29.607Z,94899.26
2018-08-23T09:59:37.502Z,94897.67
2018-08-23T10:02:47.037Z,94899.09
2018-08-23T10:05:56.888Z,94888.81
2018-08-23T10:09:15.554Z,94885.33
2018-08-23T10:12:25.154Z,94884.18
2018-08-23T10:15:35.951Z,94875.42
2018-08-23T10:18:46.737Z,94876.12
2018-08-23T10:21:56.486Z,94876.24
2018-08-23T10:25:05.189Z,94871.67
2018-08-23T10:28:11.910Z,94869.11
2018-08-23T10:31:16.439Z,94873.39
2018-08-23T10:34:20.915Z,94871.23
2018-08-23T10:37:25.512Z,94875.19
2018-08-23T10:40:30.131Z,94866.53
2018-08-23T10:43:39.968Z,94876.45
2018-08-23T10:46:49.908Z,94871.13
2018-08-23T10:49:54.514Z,94863.20
2018-08-23T10:52:59.052Z,94865.34
2018-08-23T10:56:03.670Z,94855.13
2018-08-23T10:59:08.514Z,94854.58
2018-08-23T11:02:12.985Z,94846.36
2018-08-23T11:05:17.829Z,94844.35
2018-08-23T11:08:25.215Z,94845.56
2018-08-23T11:11:32.642Z,94835.69
2018-08-23T11:14:41.081Z,94830.22
2018-08-23T11:17:51.234Z,94827.95
2018-08-23T11:20:55.733Z,94823.08
2018-08-23T11:24:00.307Z,94819.84
2018-08-23T11:27:04.759Z,94813.91
2018-08-23T11:30:09.222Z,94805.27
2018-08-23T11:33:13.755Z,94804.48
2018-08-23T11:36:19.326Z,94802.86
2018-08-23T11:39:24.344Z,94800.75
2018-08-23T11:42:28.930Z,94801.97
2018-08-23T11:45:33.896Z,94807.88
2018-08-23T11:48:38.491Z,94804.06
2018-08-23T11:51:42.954Z,94793.28
2018-08-23T11:54:47.510Z,94790.94
2018-08-23T11:57:52.079Z,94785.24
2018-08-23T12:01:01.878Z,94782.80
2018-08-23T12:04:06.634Z,94779.37
2018-08-23T12:07:11.062Z,94781.45
2018-08-23T12:10:18.239Z,94771.64
2018-08-23T12:13:22.613Z,94764.36
2018-08-23T12:16:27.147Z,94763.13
2018-08-23T12:19:31.636Z,94755.38
2018-08-23T12:22:43.958Z,94750.75
2018-08-23T12:25:48.626Z,94752.82
2018-08-23T12:28:58.317Z,94744.81
2018-08-23T12:32:03.115Z,94741.47
2018-08-23T12:35:07.936Z,94745.82
2018-08-23T12:38:20.534Z,94744.15
2018-08-23T12:41:30.875Z,94733.72
2018-08-23T12:44:48.308Z,94730.35
2018-08-23T12:47:52.785Z,94717.41
2018-08-23T12:50:59.761Z,94716.90
2018-08-23T12:54:04.519Z,94722.64
2018-08-23T12:57:09.197Z,94717.20
2018-08-23T13:00:13.590Z,94717.69
2018-08-23T13:03:18.269Z,94719.14
2018-08-23T13:06:22.671Z,94716.83
2018-08-23T13:09:27.096Z,94715.03
2018-08-23T13:12:31.561Z,94715.05
2018-08-23T13:15:36.317Z,94708.03
2018-08-23T13:18:41.062Z,94708.23
2018-08-23T13:21:49.793Z,94704.32
2018-08-23T13:24:59.538Z,94703.39
2018-08-23T13:28:04.651Z,94692.88
2018-08-23T13:31:09.264Z,94692.57
2018-08-23T13:34:13.993Z,94689.42
2018-08-23T13:37:24.354Z,94694.45
2018-08-23T13:40:31.557Z,94693.88
2018-08-23T13:43:36.265Z,94694.63
2018-08-23T13:46:40.503Z,94682.97
2018-08-23T13:49:45.337Z,94681.97
2018-08-23T13:52:49.892Z,94677.53
2018-08-23T13:55:56.207Z,94674.30
2018-08-23T13:59:01.314Z,94675.17
2018-08-23T14:02:05.721Z,94677.48
2018-08-23T14:05:10.755Z,94687.94
2018-08-23T14:08:15.158Z,94684.08
2018-08-23T14:11:19.597Z,94673.95
2018-08-23T14:14:24.483Z,94672.34
2018-08-23T14:17:28.985Z,94687.41
2018-08-23T14:20:33.379Z,94698.81
2018-08-23T14:23:37.832Z,94703.39
2018-08-23T14:26:42.240Z,94761.86
2018-08-23T14:29:47.228Z,94789.39
2018-08-23T14:32:51.976Z,94799.94
2018-08-23T14:35:57.505Z,94787.17
2018-08-23T14:39:01.918Z,94785.64
2018-08-23T14:42:06.621Z,94780.50
2018-08-23T14:45:11.138Z,94774.61
2018-08-23T14:48:17.427Z,94770.20
2018-08-23T14:51:21.884Z,94780.18
2018-08-23T14:54:31.448Z,94795.94
2018-08-23T14:57:37.087Z,94799.95
2018-08-23T15:00:41.621Z,94841.91
2018-08-23T15:03:46.082Z,94849.59
2018-08-23T15:06:50.533Z,94848.52
2018-08-23T15:09:55.345Z,94844.02
2018-08-23T15:13:00.509Z,94812.25
2018-08-23T15:16:05.066Z,94808.63
2018-08-23T15:19:09.718Z,94818.20
2018-08-23T15:22:14.115Z,94814.56
2018-08-23T15:25:18.513Z,94813.05
2018-08-23T15:28:22.903Z,94842.97
2018-08-23T15:31:27.490Z,94851.20
2018-08-23T15:34:32.048Z,94838.34
2018-08-23T15:37:36.595Z,94833.67
2018-08-23T15:40:41.068Z,94825.85
2018-08-23T15:43:45.777Z,94812.82
2018-08-23T15:46:50.270Z,94806.91
2018-08-23T15:49:55.466Z,94794.06
2018-08-23T15:53:00.163Z,94795.63
2018-08-23T15:56:04.858Z,94801.78
2018-08-23T15:59:09.451Z,94799.33
2018-08-23T16:02:14.026Z,94790.69
2018-08-23T16:05:18.755Z,94781.66
2018-08-23T16:08:23.241Z,94770.92
2018-08-23T16:11:28.114Z,94767.64
2018-08-23T16:14:33.542Z,94775.53
2018-08-23T16:17:43.422Z,94767.85
2018-08-23T16:20:52.863Z,94762.84
2018-08-23T16:23:57.906Z,94754.41
2018-08-23T16:27:05.490Z,94752.11
2018-08-23T16:30:10.073Z,94740.78
2018-08-23T16:33:14.529Z,94737.38
2018-08-23T16:36:19.105Z,94730.24
2018-08-23T16:39:23.796Z,94718.92
2018-08-23T16:42:28.461Z,94710.28
2018-08-23T16:45:32.894Z,94707.20
2018-08-23T16:48:37.460Z,94709.87
2018-08-23T16:51:42.357Z,94720.23
2018-08-23T16:54:47.038Z,94722.34
2018-08-23T16:57:53.645Z,94732.00
2018-08-23T17:00:58.967Z,94733.34
2018-08-23T17:04:03.478Z,94730.83
2018-08-23T17:07:08.541Z,94738.14
2018-08-23T17:10:13.513Z,94735.25
2018-08-23T17:13:24.327Z,94749.08
2018-08-23T17:16:34.593Z,94748.50
2018-08-23T17:19:49.046Z,94756.00
2018-08-23T17:22:53.894Z,94760.41
2018-08-23T17:25:58.645Z,94761.36
2018-08-23T17:29:03.223Z,94764.66
2018-08-23T17:32:08.349Z,94762.33
2018-08-23T17:35:12.863Z,94769.83
2018-08-23T17:38:17.514Z,94784.03
2018-08-23T17:41:21.910Z,94796.73
2018-08-23T17:44:26.421Z,94824.98
2018-08-23T17:47:31.065Z,94848.39
2018-08-23T17:50:35.967Z,94831.50
2018-08-23T17:53:41.796Z,94850.13
2018-08-23T17:56:46.386Z,94842.45
2018-08-23T17:59:51.031Z,94840.92
2018-08-23T18:02:55.430Z,94846.85
2018-08-23T18:05:59.901Z,94846.66
2018-08-23T18:09:07.001Z,94830.70
2018-08-23T18:12:11.667Z,94828.03
2018-08-23T18:15:16.250Z,94840.11
2018-08-23T18:18:22.821Z,94835.66
2018-08-23T18:21:28.182Z,94833.90
2018-08-23T18:24:33.198Z,94828.53
2018-08-23T18:27:52.891Z,94830.84
2018-08-23T18:30:57.703Z,94834.10
2018-08-23T18:34:03.883Z,94826.02
2018-08-23T18:37:08.470Z,94824.45
2018-08-23T18:40:13.752Z,94825.63
2018-08-23T18:43:18.271Z,94818.70
2018-08-23T18:46:23.931Z,94809.70
2018-08-23T18:49:29.539Z,94805.27
2018-08-23T18:52:34.151Z,94805.48
2018-08-23T18:55:38.740Z,94805.09
2018-08-23T18:58:43.620Z,94806.81
2018-08-23T19:01:48.298Z,94798.74
2018-08-23T19:04:53.385Z,94794.53
2018-08-23T19:07:57.976Z,94796.06
2018-08-23T19:11:02.403Z,94809.50
2018-08-23T19:14:06.830Z,94810.84
2018-08-23T19:17:17.665Z,94814.67
2018-08-23T19:20:22.102Z,94811.59
2018-08-23T19:23:26.698Z,94807.16
2018-08-23T19:26:31.204Z,94814.06
2018-08-23T19:29:35.966Z,94813.09
2018-08-23T19:32:40.380Z,94815.19
2018-08-23T19:35:44.804Z,94818.63
2018-08-23T19:38:49.229Z,94819.19
2018-08-23T19:41:54.424Z,94822.65
2018-08-23T19:45:00.889Z,94817.84
2018-08-23T19:48:05.632Z,94819.36
2018-08-23T19:51:10.029Z,94820.11
2018-08-23T19:54:14.536Z,94823.14
2018-08-23T19:57:19.458Z,94821.96
2018-08-23T20:00:24.114Z,94824.98
2018-08-23T20:03:28.898Z,94824.42
2018-08-23T20:06:33.399Z,94823.47
2018-08-23T20:09:38.080Z,94821.36
2018-08-23T20:12:42.650Z,94819.41
2018-08-23T20:15:47.053Z,94816.63
2018-08-23T20:18:51.609Z,94812.80
2018-08-23T20:21:56.480Z,94816.48
2018-08-23T20:25:01.029Z,94811.66
2018-08-23T20:28:05.765Z,94813.00
2018-08-23T20:31:10.230Z,94810.69
2018-08-23T20:34:14.634Z,94808.77
2018-08-23T20:37:19.201Z,94810.28
2018-08-23T20:40:23.746Z,94807.39
2018-08-23T20:43:28.155Z,94810.08
2018-08-23T20:46:32.658Z,94805.44
2018-08-23T20:49:37.162Z,94806.98
2018-08-23T20:52:41.858Z,94807.72
2018-08-23T20:55:49.442Z,94800.03
2018-08-23T20:58:54.165Z,94800.81
2018-08-23T21:01:58.762Z,94793.73
2018-08-23T21:05:03.223Z,94785.64
2018-08-23T21:08:07.962Z,94781.20
2018-08-23T21:11:12.505Z,94774.42
2018-08-23T21:14:16.961Z,94775.40
2018-08-23T21:17:21.601Z,94778.23
2018-08-23T21:20:26.048Z,94777.41
2018-08-23T21:23:30.603Z,94770.50
2018-08-23T21:26:35.168Z,94770.83
2018-08-23T21:29:40.057Z,94774.89
2018-08-23T21:32:44.428Z,94780.27
2018-08-23T21:35:48.946Z,94779.44
2018-08-23T21:38:53.306Z,94774.84
2018-08-23T21:41:57.687Z,94776.34
2018-08-23T21:45:02.047Z,94771.66
2018-08-23T21:48:06.816Z,94774.86
2018-08-23T21:51:11.632Z,94778.87
2018-08-23T21:54:16.137Z,94773.30
2018-08-23T21:57:20.549Z,94771.34
2018-08-23T22:00:24.927Z,94758.92
2018-08-23T22:03:29.445Z,94761.59
2018-08-23T22:06:33.952Z,94759.06
2018-08-23T22:09:38.592Z,94751.73
2018-08-23T22:12:42.871Z,94752.72
2018-08-23T22:15:49.433Z,94754.78
2018-08-23T22:18:54.099Z,94751.28
2018-08-23T22:21:58.550Z,94750.55
2018-08-23T22:25:03.034Z,94746.88
2018-08-23T22:28:07.926Z,94743.92
2018-08-23T22:31:12.441Z,94736.53
2018-08-23T22:34:18.009Z,94733.28
2018-08-23T22:37:22.483Z,94733.63
2018-08-23T22:40:27.219Z,94729.20
2018-08-23T22:43:32.198Z,94731.67
2018-08-23T22:46:36.895Z,94721.89
2018-08-23T22:49:41.311Z,94718.98
2018-08-23T22:52:45.727Z,94714.61
2018-08-23T22:55:50.442Z,94712.09
2018-08-23T22:58:54.932Z,94715.48
2018-08-23T23:01:59.425Z,94712.04
2018-08-23T23:05:03.999Z,94713.13
2018-08-23T23:08:08.820Z,94707.53
2018-08-23T23:11:13.287Z,94710.00
2018-08-23T23:14:24.385Z,94708.23
2018-08-23T23:17:29.382Z,94703.44
2018-08-23T23:20:33.767Z,94703.23
2018-08-23T23:23:38.186Z,94713.35
2018-08-23T23:26:42.633Z,94710.78
2018-08-23T23:29:47.306Z,94706.97
2018-08-23T23:32:51.765Z,94712.53
2018-08-23T23:35:56.469Z,94704.30
2018-08-23T23:39:01.031Z,94703.50
2018-08-23T23:42:05.969Z,94706.09
2018-08-23T23:45:10.427Z,94705.84
2018-08-23T23:48:14.801Z,94705.27
2018-08-23T23:51:19.314Z,94701.82
2018-08-23T23:54:23.699Z,94696.91
2018-08-23T23:57:29.069Z,94695.41
